sensor_id;sensor_type;location;lat;lon;timestamp;temperature;humidity
20380;DHT22;10349;48.666;8.948;2024-02-21T00:02:04;4.00;99.90
20380;DHT22;10349;48.666;8.948;2024-02-21T00:04:29;4.00;99.90
20380;DHT22;10349;48.666;8.948;2024-02-21T00:06:55;4.00;99.90
20380;DHT22;10349;48.666;8.948;2024-02-21T00:09:21;3.90;99.90
20380;DHT22;10349;48.666;8.948;2024-02-21T00:11:46;3.90;99.90
20380;DHT22;10349;48.666;8.948;2024-02-21T00:14:13;3.90;99.90
20380;DHT22;10349;48.666;8.948;2024-02-21T00:16:38;3.90;99.90
20380;DHT22;10349;48.666;8.948;2024-02-21T00:19:04;3.90;99.90
20380;DHT22;10349;48.666;8.948;2024-02-21T00:21:30;4.00;99.90
20380;DHT22;10349;48.666;8.948;2024-02-21T00:23:55;4.00;99.90
20380;DHT22;10349;48.666;8.948;2024-02-21T00:26:21;4.00;99.90
20380;DHT22;10349;48.666;8.948;2024-02-21T00:28:46;4.00;99.90
20380;DHT22;10349;48.666;8.948;2024-02-21T00:31:12;4.00;99.90
20380;DHT22;10349;48.666;8.948;2024-02-21T00:33:38;4.00;99.90
20380;DHT22;10349;48.666;8.948;2024-02-21T00:36:04;4.00;99.90
20380;DHT22;10349;48.666;8.948;2024-02-21T00:38:29;4.00;99.90
20380;DHT22;10349;48.666;8.948;2024-02-21T00:40:55;4.00;99.90
20380;DHT22;10349;48.666;8.948;2024-02-21T00:43:21;4.00;99.90
20380;DHT22;10349;48.666;8.948;2024-02-21T00:45:49;4.00;99.90
20380;DHT22;10349;48.666;8.948;2024-02-21T00:48:15;4.00;99.90
20380;DHT22;10349;48.666;8.948;2024-02-21T00:50:41;4.00;99.90
20380;DHT22;10349;48.666;8.948;2024-02-21T00:53:06;4.00;99.90
20380;DHT22;10349;48.666;8.948;2024-02-21T00:55:32;4.00;99.90
20380;DHT22;10349;48.666;8.948;2024-02-21T00:57:58;4.00;99.90
20380;DHT22;10349;48.666;8.948;2024-02-21T01:00:23;4.10;99.90
20380;DHT22;10349;48.666;8.948;2024-02-21T01:02:49;4.10;99.90
20380;DHT22;10349;48.666;8.948;2024-02-21T01:05:15;4.10;99.90
20380;DHT22;10349;48.666;8.948;2024-02-21T01:07:40;4.10;99.90
20380;DHT22;10349;48.666;8.948;2024-02-21T01:10:06;4.10;99.90
20380;DHT22;10349;48.666;8.948;2024-02-21T01:12:32;4.10;99.90
20380;DHT22;10349;48.666;8.948;2024-02-21T01:14:58;4.20;99.90
20380;DHT22;10349;48.666;8.948;2024-02-21T01:17:23;4.10;99.90
20380;DHT22;10349;48.666;8.948;2024-02-21T01:19:49;4.00;99.90
20380;DHT22;10349;48.666;8.948;2024-02-21T01:22:15;4.00;99.90
20380;DHT22;10349;48.666;8.948;2024-02-21T01:24:41;4.00;99.90
20380;DHT22;10349;48.666;8.948;2024-02-21T01:27:07;4.10;99.90
20380;DHT22;10349;48.666;8.948;2024-02-21T01:29:33;4.00;99.90
20380;DHT22;10349;48.666;8.948;2024-02-21T01:31:59;4.00;99.90
20380;DHT22;10349;48.666;8.948;2024-02-21T01:34:24;4.00;99.90
20380;DHT22;10349;48.666;8.948;2024-02-21T01:36:50;4.00;99.90
20380;DHT22;10349;48.666;8.948;2024-02-21T01:39:16;4.00;99.90
20380;DHT22;10349;48.666;8.948;2024-02-21T01:41:41;4.00;99.90
20380;DHT22;10349;48.666;8.948;2024-02-21T01:44:07;4.00;99.90
20380;DHT22;10349;48.666;8.948;2024-02-21T01:46:33;4.10;99.90
20380;DHT22;10349;48.666;8.948;2024-02-21T01:48:59;4.00;99.90
20380;DHT22;10349;48.666;8.948;2024-02-21T01:51:25;4.10;99.90
20380;DHT22;10349;48.666;8.948;2024-02-21T01:53:52;4.10;99.90
20380;DHT22;10349;48.666;8.948;2024-02-21T01:56:18;4.10;99.90
20380;DHT22;10349;48.666;8.948;2024-02-21T01:58:45;4.10;99.90
20380;DHT22;10349;48.666;8.948;2024-02-21T02:01:12;4.10;99.90
20380;DHT22;10349;48.666;8.948;2024-02-21T02:03:37;4.20;99.90
20380;DHT22;10349;48.666;8.948;2024-02-21T02:06:05;4.20;99.90
20380;DHT22;10349;48.666;8.948;2024-02-21T02:08:32;4.20;99.90
20380;DHT22;10349;48.666;8.948;2024-02-21T02:10:59;4.20;99.90
20380;DHT22;10349;48.666;8.948;2024-02-21T02:13:25;4.20;99.90
20380;DHT22;10349;48.666;8.948;2024-02-21T02:15:51;4.20;99.90
20380;DHT22;10349;48.666;8.948;2024-02-21T02:18:18;4.20;99.90
20380;DHT22;10349;48.666;8.948;2024-02-21T02:20:44;4.20;99.90
20380;DHT22;10349;48.666;8.948;2024-02-21T02:26:58;4.20;99.90
20380;DHT22;10349;48.666;8.948;2024-02-21T02:29:23;4.20;99.90
20380;DHT22;10349;48.666;8.948;2024-02-21T02:31:49;4.30;99.90
20380;DHT22;10349;48.666;8.948;2024-02-21T02:34:15;4.30;99.90
20380;DHT22;10349;48.666;8.948;2024-02-21T02:36:40;4.30;99.90
20380;DHT22;10349;48.666;8.948;2024-02-21T02:39:06;4.30;99.90
20380;DHT22;10349;48.666;8.948;2024-02-21T02:41:35;4.30;99.90
20380;DHT22;10349;48.666;8.948;2024-02-21T02:44:01;4.30;99.90
20380;DHT22;10349;48.666;8.948;2024-02-21T02:46:26;4.40;99.90
20380;DHT22;10349;48.666;8.948;2024-02-21T02:48:52;4.40;99.90
20380;DHT22;10349;48.666;8.948;2024-02-21T02:51:18;4.40;99.90
20380;DHT22;10349;48.666;8.948;2024-02-21T02:53:43;4.40;99.90
20380;DHT22;10349;48.666;8.948;2024-02-21T02:56:14;4.40;99.90
20380;DHT22;10349;48.666;8.948;2024-02-21T02:58:40;4.40;99.90
20380;DHT22;10349;48.666;8.948;2024-02-21T03:01:07;4.40;99.90
20380;DHT22;10349;48.666;8.948;2024-02-21T03:03:32;4.40;99.90
20380;DHT22;10349;48.666;8.948;2024-02-21T03:05:58;4.40;99.90
20380;DHT22;10349;48.666;8.948;2024-02-21T03:08:24;4.40;99.90
20380;DHT22;10349;48.666;8.948;2024-02-21T03:10:49;4.40;99.90
20380;DHT22;10349;48.666;8.948;2024-02-21T03:13:15;4.30;99.90
20380;DHT22;10349;48.666;8.948;2024-02-21T03:15:40;4.30;99.90
20380;DHT22;10349;48.666;8.948;2024-02-21T03:18:06;4.30;99.90
20380;DHT22;10349;48.666;8.948;2024-02-21T03:20:32;4.30;99.90
20380;DHT22;10349;48.666;8.948;2024-02-21T03:22:57;4.30;99.90
20380;DHT22;10349;48.666;8.948;2024-02-21T03:25:23;4.20;99.90
20380;DHT22;10349;48.666;8.948;2024-02-21T03:27:49;4.20;99.90
20380;DHT22;10349;48.666;8.948;2024-02-21T03:30:14;4.20;99.90
20380;DHT22;10349;48.666;8.948;2024-02-21T03:32:40;4.20;99.90
20380;DHT22;10349;48.666;8.948;2024-02-21T03:35:06;4.10;99.90
20380;DHT22;10349;48.666;8.948;2024-02-21T03:37:32;4.10;99.90
20380;DHT22;10349;48.666;8.948;2024-02-21T03:39:57;4.10;99.90
20380;DHT22;10349;48.666;8.948;2024-02-21T03:42:23;4.10;99.90
20380;DHT22;10349;48.666;8.948;2024-02-21T03:44:48;4.10;99.90
20380;DHT22;10349;48.666;8.948;2024-02-21T03:47:14;4.10;99.90
20380;DHT22;10349;48.666;8.948;2024-02-21T03:49:40;4.00;99.90
20380;DHT22;10349;48.666;8.948;2024-02-21T03:52:05;4.00;99.90
20380;DHT22;10349;48.666;8.948;2024-02-21T03:54:31;4.00;99.90
20380;DHT22;10349;48.666;8.948;2024-02-21T03:56:56;4.00;99.90
20380;DHT22;10349;48.666;8.948;2024-02-21T03:59:22;4.10;99.90
20380;DHT22;10349;48.666;8.948;2024-02-21T04:01:52;4.10;99.90
20380;DHT22;10349;48.666;8.948;2024-02-21T04:04:18;4.10;99.90
20380;DHT22;10349;48.666;8.948;2024-02-21T04:06:50;4.10;99.90
20380;DHT22;10349;48.666;8.948;2024-02-21T04:09:16;4.10;99.90
20380;DHT22;10349;48.666;8.948;2024-02-21T04:11:42;4.10;99.90
20380;DHT22;10349;48.666;8.948;2024-02-21T04:14:08;4.10;99.90
20380;DHT22;10349;48.666;8.948;2024-02-21T04:16:34;4.00;99.90
20380;DHT22;10349;48.666;8.948;2024-02-21T04:19:00;4.00;99.90
20380;DHT22;10349;48.666;8.948;2024-02-21T04:21:27;4.00;99.90
20380;DHT22;10349;48.666;8.948;2024-02-21T04:23:53;4.00;99.90
20380;DHT22;10349;48.666;8.948;2024-02-21T04:26:18;4.10;99.90
20380;DHT22;10349;48.666;8.948;2024-02-21T04:28:45;4.10;99.90
20380;DHT22;10349;48.666;8.948;2024-02-21T04:31:11;4.20;99.90
20380;DHT22;10349;48.666;8.948;2024-02-21T04:33:36;4.10;99.90
20380;DHT22;10349;48.666;8.948;2024-02-21T04:36:02;4.10;99.90
20380;DHT22;10349;48.666;8.948;2024-02-21T04:38:28;4.10;99.90
20380;DHT22;10349;48.666;8.948;2024-02-21T04:40:55;4.10;99.90
20380;DHT22;10349;48.666;8.948;2024-02-21T04:43:21;4.10;99.90
20380;DHT22;10349;48.666;8.948;2024-02-21T04:45:46;4.10;99.90
20380;DHT22;10349;48.666;8.948;2024-02-21T04:48:12;4.10;99.90
20380;DHT22;10349;48.666;8.948;2024-02-21T04:50:38;4.10;99.90
20380;DHT22;10349;48.666;8.948;2024-02-21T04:53:03;4.10;99.90
20380;DHT22;10349;48.666;8.948;2024-02-21T04:55:29;4.10;99.90
20380;DHT22;10349;48.666;8.948;2024-02-21T04:57:54;4.10;99.90
20380;DHT22;10349;48.666;8.948;2024-02-21T05:00:20;3.90;99.90
20380;DHT22;10349;48.666;8.948;2024-02-21T05:02:46;3.90;99.90
20380;DHT22;10349;48.666;8.948;2024-02-21T05:05:11;3.90;99.90
20380;DHT22;10349;48.666;8.948;2024-02-21T05:07:37;3.90;99.90
20380;DHT22;10349;48.666;8.948;2024-02-21T05:10:03;3.80;99.90
20380;DHT22;10349;48.666;8.948;2024-02-21T05:12:28;3.80;99.90
20380;DHT22;10349;48.666;8.948;2024-02-21T05:14:55;3.80;99.90
20380;DHT22;10349;48.666;8.948;2024-02-21T05:17:22;3.80;99.90
20380;DHT22;10349;48.666;8.948;2024-02-21T05:19:48;3.70;99.90
20380;DHT22;10349;48.666;8.948;2024-02-21T05:22:13;3.70;99.90
20380;DHT22;10349;48.666;8.948;2024-02-21T05:24:39;3.70;99.90
20380;DHT22;10349;48.666;8.948;2024-02-21T05:27:05;3.70;99.90
20380;DHT22;10349;48.666;8.948;2024-02-21T05:29:32;3.60;99.90
20380;DHT22;10349;48.666;8.948;2024-02-21T05:31:58;3.60;99.90
20380;DHT22;10349;48.666;8.948;2024-02-21T05:34:24;3.50;99.90
20380;DHT22;10349;48.666;8.948;2024-02-21T05:36:51;3.50;99.90
20380;DHT22;10349;48.666;8.948;2024-02-21T05:39:17;3.50;99.90
20380;DHT22;10349;48.666;8.948;2024-02-21T05:41:43;3.40;99.90
20380;DHT22;10349;48.666;8.948;2024-02-21T05:44:11;3.40;99.90
20380;DHT22;10349;48.666;8.948;2024-02-21T05:46:37;3.40;99.90
20380;DHT22;10349;48.666;8.948;2024-02-21T05:49:03;3.40;99.90
20380;DHT22;10349;48.666;8.948;2024-02-21T05:51:32;3.40;99.90
20380;DHT22;10349;48.666;8.948;2024-02-21T05:53:58;3.40;99.90
20380;DHT22;10349;48.666;8.948;2024-02-21T05:56:24;3.40;99.90
20380;DHT22;10349;48.666;8.948;2024-02-21T05:58:49;3.40;99.90
20380;DHT22;10349;48.666;8.948;2024-02-21T06:01:15;3.40;99.90
20380;DHT22;10349;48.666;8.948;2024-02-21T06:03:41;3.30;99.90
20380;DHT22;10349;48.666;8.948;2024-02-21T06:06:06;3.40;99.90
20380;DHT22;10349;48.666;8.948;2024-02-21T06:08:32;3.40;99.90
20380;DHT22;10349;48.666;8.948;2024-02-21T06:10:58;3.40;99.90
20380;DHT22;10349;48.666;8.948;2024-02-21T06:13:24;3.40;99.90
20380;DHT22;10349;48.666;8.948;2024-02-21T06:15:50;3.40;99.90
20380;DHT22;10349;48.666;8.948;2024-02-21T06:18:17;3.40;99.90
20380;DHT22;10349;48.666;8.948;2024-02-21T06:20:43;3.40;99.90
20380;DHT22;10349;48.666;8.948;2024-02-21T06:23:10;3.40;99.90
20380;DHT22;10349;48.666;8.948;2024-02-21T06:25:36;3.40;99.90
20380;DHT22;10349;48.666;8.948;2024-02-21T06:28:02;3.30;99.90
20380;DHT22;10349;48.666;8.948;2024-02-21T06:30:27;3.20;99.90
20380;DHT22;10349;48.666;8.948;2024-02-21T06:32:53;3.20;99.90
20380;DHT22;10349;48.666;8.948;2024-02-21T06:35:21;3.10;99.90
20380;DHT22;10349;48.666;8.948;2024-02-21T06:37:50;3.10;99.90
20380;DHT22;10349;48.666;8.948;2024-02-21T06:40:23;3.10;99.90
20380;DHT22;10349;48.666;8.948;2024-02-21T06:42:49;3.00;99.90
20380;DHT22;10349;48.666;8.948;2024-02-21T06:45:15;3.00;99.90
20380;DHT22;10349;48.666;8.948;2024-02-21T06:47:42;3.00;99.90
20380;DHT22;10349;48.666;8.948;2024-02-21T06:50:08;3.00;99.90
20380;DHT22;10349;48.666;8.948;2024-02-21T06:52:34;3.00;99.90
20380;DHT22;10349;48.666;8.948;2024-02-21T06:55:00;3.10;99.90
20380;DHT22;10349;48.666;8.948;2024-02-21T06:57:26;3.10;99.90
20380;DHT22;10349;48.666;8.948;2024-02-21T06:59:51;3.10;99.90
20380;DHT22;10349;48.666;8.948;2024-02-21T07:02:17;3.10;99.90
20380;DHT22;10349;48.666;8.948;2024-02-21T07:04:42;3.10;99.90
20380;DHT22;10349;48.666;8.948;2024-02-21T07:07:09;3.10;99.90
20380;DHT22;10349;48.666;8.948;2024-02-21T07:09:39;3.20;99.90
20380;DHT22;10349;48.666;8.948;2024-02-21T07:12:05;3.20;99.90
20380;DHT22;10349;48.666;8.948;2024-02-21T07:14:32;3.20;99.90
20380;DHT22;10349;48.666;8.948;2024-02-21T07:17:03;3.30;99.90
20380;DHT22;10349;48.666;8.948;2024-02-21T07:19:32;3.40;99.90
20380;DHT22;10349;48.666;8.948;2024-02-21T07:22:01;3.50;99.90
20380;DHT22;10349;48.666;8.948;2024-02-21T07:24:27;3.50;99.90
20380;DHT22;10349;48.666;8.948;2024-02-21T07:26:53;3.60;99.90
20380;DHT22;10349;48.666;8.948;2024-02-21T07:29:22;3.70;99.90
20380;DHT22;10349;48.666;8.948;2024-02-21T07:31:51;3.70;99.90
20380;DHT22;10349;48.666;8.948;2024-02-21T07:34:27;3.80;99.90
20380;DHT22;10349;48.666;8.948;2024-02-21T07:36:52;3.90;99.90
20380;DHT22;10349;48.666;8.948;2024-02-21T07:39:18;3.90;99.90
20380;DHT22;10349;48.666;8.948;2024-02-21T07:41:44;4.00;99.90
20380;DHT22;10349;48.666;8.948;2024-02-21T07:44:11;4.00;99.90
20380;DHT22;10349;48.666;8.948;2024-02-21T07:46:37;4.10;99.90
20380;DHT22;10349;48.666;8.948;2024-02-21T07:49:02;4.20;99.90
20380;DHT22;10349;48.666;8.948;2024-02-21T07:51:28;4.30;99.90
20380;DHT22;10349;48.666;8.948;2024-02-21T07:53:54;4.40;99.90
20380;DHT22;10349;48.666;8.948;2024-02-21T07:56:19;4.50;99.90
20380;DHT22;10349;48.666;8.948;2024-02-21T07:58:45;4.50;99.90
20380;DHT22;10349;48.666;8.948;2024-02-21T08:01:11;4.60;99.90
20380;DHT22;10349;48.666;8.948;2024-02-21T08:03:36;4.70;99.90
20380;DHT22;10349;48.666;8.948;2024-02-21T08:06:03;4.70;99.90
20380;DHT22;10349;48.666;8.948;2024-02-21T08:08:29;4.80;99.90
20380;DHT22;10349;48.666;8.948;2024-02-21T08:10:55;4.80;99.90
20380;DHT22;10349;48.666;8.948;2024-02-21T08:13:21;4.90;99.90
20380;DHT22;10349;48.666;8.948;2024-02-21T08:15:46;5.00;99.90
20380;DHT22;10349;48.666;8.948;2024-02-21T08:18:12;5.00;99.90
20380;DHT22;10349;48.666;8.948;2024-02-21T08:20:38;5.00;99.90
20380;DHT22;10349;48.666;8.948;2024-02-21T08:23:04;5.10;99.90
20380;DHT22;10349;48.666;8.948;2024-02-21T08:25:29;5.10;99.90
20380;DHT22;10349;48.666;8.948;2024-02-21T08:27:58;5.20;99.90
20380;DHT22;10349;48.666;8.948;2024-02-21T08:30:24;5.20;99.90
20380;DHT22;10349;48.666;8.948;2024-02-21T08:32:49;5.30;99.90
20380;DHT22;10349;48.666;8.948;2024-02-21T08:35:15;5.30;99.90
20380;DHT22;10349;48.666;8.948;2024-02-21T08:37:44;5.30;99.90
20380;DHT22;10349;48.666;8.948;2024-02-21T08:40:10;5.30;99.90
20380;DHT22;10349;48.666;8.948;2024-02-21T08:42:36;5.40;99.90
20380;DHT22;10349;48.666;8.948;2024-02-21T08:45:03;5.40;99.90
20380;DHT22;10349;48.666;8.948;2024-02-21T08:47:28;5.40;99.90
20380;DHT22;10349;48.666;8.948;2024-02-21T08:49:54;5.40;99.90
20380;DHT22;10349;48.666;8.948;2024-02-21T08:52:20;5.50;99.90
20380;DHT22;10349;48.666;8.948;2024-02-21T08:54:45;5.50;99.90
20380;DHT22;10349;48.666;8.948;2024-02-21T08:57:11;5.50;99.90
20380;DHT22;10349;48.666;8.948;2024-02-21T08:59:39;5.50;99.90
20380;DHT22;10349;48.666;8.948;2024-02-21T09:02:05;5.60;99.90
20380;DHT22;10349;48.666;8.948;2024-02-21T09:04:32;5.60;99.90
20380;DHT22;10349;48.666;8.948;2024-02-21T09:06:58;5.70;99.90
20380;DHT22;10349;48.666;8.948;2024-02-21T09:09:24;5.80;99.90
20380;DHT22;10349;48.666;8.948;2024-02-21T09:11:50;5.80;99.90
20380;DHT22;10349;48.666;8.948;2024-02-21T09:14:16;5.90;99.90
20380;DHT22;10349;48.666;8.948;2024-02-21T09:16:42;6.00;99.90
20380;DHT22;10349;48.666;8.948;2024-02-21T09:19:07;6.00;99.90
20380;DHT22;10349;48.666;8.948;2024-02-21T09:21:39;6.00;99.90
20380;DHT22;10349;48.666;8.948;2024-02-21T09:24:05;6.10;99.90
20380;DHT22;10349;48.666;8.948;2024-02-21T09:26:31;6.20;99.90
20380;DHT22;10349;48.666;8.948;2024-02-21T09:28:57;6.20;99.90
20380;DHT22;10349;48.666;8.948;2024-02-21T09:31:22;6.30;99.90
20380;DHT22;10349;48.666;8.948;2024-02-21T09:33:48;6.30;99.90
20380;DHT22;10349;48.666;8.948;2024-02-21T09:36:14;6.40;99.90
20380;DHT22;10349;48.666;8.948;2024-02-21T09:38:40;6.50;99.90
20380;DHT22;10349;48.666;8.948;2024-02-21T09:41:17;6.50;99.90
20380;DHT22;10349;48.666;8.948;2024-02-21T09:43:43;6.50;99.90
20380;DHT22;10349;48.666;8.948;2024-02-21T09:46:18;6.60;99.90
20380;DHT22;10349;48.666;8.948;2024-02-21T09:49:20;6.70;99.90
20380;DHT22;10349;48.666;8.948;2024-02-21T09:51:49;6.70;99.90
20380;DHT22;10349;48.666;8.948;2024-02-21T09:54:16;6.80;99.90
20380;DHT22;10349;48.666;8.948;2024-02-21T09:56:47;6.90;99.90
20380;DHT22;10349;48.666;8.948;2024-02-21T09:59:16;7.00;99.90
20380;DHT22;10349;48.666;8.948;2024-02-21T10:01:45;7.10;99.90
20380;DHT22;10349;48.666;8.948;2024-02-21T10:04:12;7.20;99.90
20380;DHT22;10349;48.666;8.948;2024-02-21T10:06:38;7.40;99.90
20380;DHT22;10349;48.666;8.948;2024-02-21T10:09:06;7.40;99.90
20380;DHT22;10349;48.666;8.948;2024-02-21T10:11:32;7.50;99.90
20380;DHT22;10349;48.666;8.948;2024-02-21T10:14:07;7.60;99.90
20380;DHT22;10349;48.666;8.948;2024-02-21T10:16:33;7.70;99.90
20380;DHT22;10349;48.666;8.948;2024-02-21T10:18:59;7.70;99.90
20380;DHT22;10349;48.666;8.948;2024-02-21T10:21:24;7.80;99.90
20380;DHT22;10349;48.666;8.948;2024-02-21T10:23:51;7.90;99.90
20380;DHT22;10349;48.666;8.948;2024-02-21T10:26:20;7.90;99.90
20380;DHT22;10349;48.666;8.948;2024-02-21T10:28:47;8.00;99.90
20380;DHT22;10349;48.666;8.948;2024-02-21T10:31:24;8.00;99.90
20380;DHT22;10349;48.666;8.948;2024-02-21T10:34:00;8.10;99.90
20380;DHT22;10349;48.666;8.948;2024-02-21T10:36:30;8.20;99.90
20380;DHT22;10349;48.666;8.948;2024-02-21T10:38:56;8.30;99.90
20380;DHT22;10349;48.666;8.948;2024-02-21T10:41:23;8.40;99.90
20380;DHT22;10349;48.666;8.948;2024-02-21T10:43:51;8.50;99.90
20380;DHT22;10349;48.666;8.948;2024-02-21T10:46:19;8.60;99.90
20380;DHT22;10349;48.666;8.948;2024-02-21T10:48:46;8.70;99.90
20380;DHT22;10349;48.666;8.948;2024-02-21T10:51:20;8.70;99.90
20380;DHT22;10349;48.666;8.948;2024-02-21T10:56:39;8.80;99.90
20380;DHT22;10349;48.666;8.948;2024-02-21T10:59:07;8.80;99.90
20380;DHT22;10349;48.666;8.948;2024-02-21T11:01:33;8.90;99.90
20380;DHT22;10349;48.666;8.948;2024-02-21T11:04:08;8.90;99.90
20380;DHT22;10349;48.666;8.948;2024-02-21T11:06:36;8.90;99.90
20380;DHT22;10349;48.666;8.948;2024-02-21T11:09:10;8.90;99.90
20380;DHT22;10349;48.666;8.948;2024-02-21T11:11:40;8.90;99.90
20380;DHT22;10349;48.666;8.948;2024-02-21T11:14:19;9.00;99.90
20380;DHT22;10349;48.666;8.948;2024-02-21T11:16:45;9.10;99.90
20380;DHT22;10349;48.666;8.948;2024-02-21T11:19:22;9.10;99.90
20380;DHT22;10349;48.666;8.948;2024-02-21T11:21:49;9.20;99.90
20380;DHT22;10349;48.666;8.948;2024-02-21T11:24:26;9.20;99.90
20380;DHT22;10349;48.666;8.948;2024-02-21T11:26:53;9.30;99.90
20380;DHT22;10349;48.666;8.948;2024-02-21T11:29:25;9.40;99.90
20380;DHT22;10349;48.666;8.948;2024-02-21T11:31:51;9.50;99.90
20380;DHT22;10349;48.666;8.948;2024-02-21T11:34:18;9.60;99.90
20380;DHT22;10349;48.666;8.948;2024-02-21T11:36:52;9.60;99.90
20380;DHT22;10349;48.666;8.948;2024-02-21T11:41:44;9.70;99.90
20380;DHT22;10349;48.666;8.948;2024-02-21T11:44:10;9.70;99.90
20380;DHT22;10349;48.666;8.948;2024-02-21T11:46:36;9.60;99.90
20380;DHT22;10349;48.666;8.948;2024-02-21T11:49:01;9.70;99.90
20380;DHT22;10349;48.666;8.948;2024-02-21T11:51:29;9.70;99.90
20380;DHT22;10349;48.666;8.948;2024-02-21T11:53:54;9.70;99.90
20380;DHT22;10349;48.666;8.948;2024-02-21T11:56:20;9.80;99.90
20380;DHT22;10349;48.666;8.948;2024-02-21T11:58:47;9.80;99.90
20380;DHT22;10349;48.666;8.948;2024-02-21T12:01:15;9.90;99.90
20380;DHT22;10349;48.666;8.948;2024-02-21T12:03:43;10.00;99.90
20380;DHT22;10349;48.666;8.948;2024-02-21T12:06:16;10.00;99.90
20380;DHT22;10349;48.666;8.948;2024-02-21T12:08:45;10.00;99.90
20380;DHT22;10349;48.666;8.948;2024-02-21T12:11:22;10.00;99.90
20380;DHT22;10349;48.666;8.948;2024-02-21T12:14:01;10.10;99.90
20380;DHT22;10349;48.666;8.948;2024-02-21T12:16:33;10.20;99.90
20380;DHT22;10349;48.666;8.948;2024-02-21T12:19:00;10.30;99.90
20380;DHT22;10349;48.666;8.948;2024-02-21T12:21:27;10.40;99.90
20380;DHT22;10349;48.666;8.948;2024-02-21T12:23:55;10.50;99.90
20380;DHT22;10349;48.666;8.948;2024-02-21T12:26:21;10.50;99.90
20380;DHT22;10349;48.666;8.948;2024-02-21T12:28:47;10.60;99.90
20380;DHT22;10349;48.666;8.948;2024-02-21T12:31:13;10.60;99.90
20380;DHT22;10349;48.666;8.948;2024-02-21T12:33:39;10.70;99.90
20380;DHT22;10349;48.666;8.948;2024-02-21T12:36:05;10.70;99.90
20380;DHT22;10349;48.666;8.948;2024-02-21T12:38:30;10.80;99.90
20380;DHT22;10349;48.666;8.948;2024-02-21T12:40:56;10.70;99.90
20380;DHT22;10349;48.666;8.948;2024-02-21T12:43:26;10.70;99.90
20380;DHT22;10349;48.666;8.948;2024-02-21T12:45:52;10.70;99.90
20380;DHT22;10349;48.666;8.948;2024-02-21T12:48:18;10.70;99.90
20380;DHT22;10349;48.666;8.948;2024-02-21T12:50:50;10.70;99.90
20380;DHT22;10349;48.666;8.948;2024-02-21T12:53:20;10.80;99.90
20380;DHT22;10349;48.666;8.948;2024-02-21T12:55:50;10.80;99.90
20380;DHT22;10349;48.666;8.948;2024-02-21T12:58:16;10.80;99.90
20380;DHT22;10349;48.666;8.948;2024-02-21T13:00:42;10.90;99.90
20380;DHT22;10349;48.666;8.948;2024-02-21T13:03:08;10.90;99.90
20380;DHT22;10349;48.666;8.948;2024-02-21T13:05:37;10.90;99.90
20380;DHT22;10349;48.666;8.948;2024-02-21T13:08:05;11.10;99.90
20380;DHT22;10349;48.666;8.948;2024-02-21T13:10:31;11.10;99.90
20380;DHT22;10349;48.666;8.948;2024-02-21T13:12:59;11.10;99.90
20380;DHT22;10349;48.666;8.948;2024-02-21T13:15:24;11.10;99.90
20380;DHT22;10349;48.666;8.948;2024-02-21T13:17:50;11.10;99.90
20380;DHT22;10349;48.666;8.948;2024-02-21T13:20:15;11.10;99.90
20380;DHT22;10349;48.666;8.948;2024-02-21T13:22:41;11.10;99.90
20380;DHT22;10349;48.666;8.948;2024-02-21T13:25:07;11.10;99.90
20380;DHT22;10349;48.666;8.948;2024-02-21T13:27:33;11.10;99.90
20380;DHT22;10349;48.666;8.948;2024-02-21T13:29:59;11.10;99.90
20380;DHT22;10349;48.666;8.948;2024-02-21T13:32:27;11.10;99.90
20380;DHT22;10349;48.666;8.948;2024-02-21T13:34:52;11.10;99.90
20380;DHT22;10349;48.666;8.948;2024-02-21T13:37:18;11.20;99.90
20380;DHT22;10349;48.666;8.948;2024-02-21T13:39:44;11.10;99.90
20380;DHT22;10349;48.666;8.948;2024-02-21T13:42:09;11.10;99.90
20380;DHT22;10349;48.666;8.948;2024-02-21T13:44:35;11.10;99.90
20380;DHT22;10349;48.666;8.948;2024-02-21T13:47:03;11.20;99.90
20380;DHT22;10349;48.666;8.948;2024-02-21T13:49:30;11.10;99.90
20380;DHT22;10349;48.666;8.948;2024-02-21T13:51:56;11.20;99.90
20380;DHT22;10349;48.666;8.948;2024-02-21T13:54:21;11.20;99.90
20380;DHT22;10349;48.666;8.948;2024-02-21T13:56:47;11.30;99.90
20380;DHT22;10349;48.666;8.948;2024-02-21T13:59:13;11.30;99.90
20380;DHT22;10349;48.666;8.948;2024-02-21T14:01:41;11.30;99.90
20380;DHT22;10349;48.666;8.948;2024-02-21T14:04:08;11.20;99.90
20380;DHT22;10349;48.666;8.948;2024-02-21T14:06:34;11.20;99.90
20380;DHT22;10349;48.666;8.948;2024-02-21T14:09:00;11.20;99.90
20380;DHT22;10349;48.666;8.948;2024-02-21T14:11:26;11.20;99.90
20380;DHT22;10349;48.666;8.948;2024-02-21T14:13:52;11.20;99.90
20380;DHT22;10349;48.666;8.948;2024-02-21T14:16:18;11.20;99.90
20380;DHT22;10349;48.666;8.948;2024-02-21T14:18:44;11.20;99.90
20380;DHT22;10349;48.666;8.948;2024-02-21T14:21:10;11.20;99.90
20380;DHT22;10349;48.666;8.948;2024-02-21T14:23:40;11.20;99.90
20380;DHT22;10349;48.666;8.948;2024-02-21T14:26:06;11.20;99.90
20380;DHT22;10349;48.666;8.948;2024-02-21T14:28:32;11.20;99.90
20380;DHT22;10349;48.666;8.948;2024-02-21T14:31:00;11.20;99.90
20380;DHT22;10349;48.666;8.948;2024-02-21T14:33:29;11.30;99.90
20380;DHT22;10349;48.666;8.948;2024-02-21T14:35:56;11.20;99.90
20380;DHT22;10349;48.666;8.948;2024-02-21T14:38:22;11.20;99.90
20380;DHT22;10349;48.666;8.948;2024-02-21T14:40:48;11.20;99.90
20380;DHT22;10349;48.666;8.948;2024-02-21T14:43:14;11.20;99.90
20380;DHT22;10349;48.666;8.948;2024-02-21T14:45:39;11.20;99.90
20380;DHT22;10349;48.666;8.948;2024-02-21T14:48:06;11.10;99.90
20380;DHT22;10349;48.666;8.948;2024-02-21T14:50:32;11.10;99.90
20380;DHT22;10349;48.666;8.948;2024-02-21T14:52:57;11.10;99.90
20380;DHT22;10349;48.666;8.948;2024-02-21T14:55:23;11.10;99.90
20380;DHT22;10349;48.666;8.948;2024-02-21T14:57:49;11.10;99.90
20380;DHT22;10349;48.666;8.948;2024-02-21T15:00:15;11.10;99.90
20380;DHT22;10349;48.666;8.948;2024-02-21T15:02:41;11.10;99.90
20380;DHT22;10349;48.666;8.948;2024-02-21T15:05:08;11.10;99.90
20380;DHT22;10349;48.666;8.948;2024-02-21T15:07:34;11.10;99.90
20380;DHT22;10349;48.666;8.948;2024-02-21T15:10:01;11.00;99.90
20380;DHT22;10349;48.666;8.948;2024-02-21T15:12:28;11.00;99.90
20380;DHT22;10349;48.666;8.948;2024-02-21T15:14:53;11.10;99.90
20380;DHT22;10349;48.666;8.948;2024-02-21T15:17:19;11.10;99.90
20380;DHT22;10349;48.666;8.948;2024-02-21T15:19:45;11.10;99.90
20380;DHT22;10349;48.666;8.948;2024-02-21T15:22:11;11.00;99.90
20380;DHT22;10349;48.666;8.948;2024-02-21T15:24:40;11.00;99.90
20380;DHT22;10349;48.666;8.948;2024-02-21T15:27:06;11.00;99.90
20380;DHT22;10349;48.666;8.948;2024-02-21T15:29:32;11.10;99.90
20380;DHT22;10349;48.666;8.948;2024-02-21T15:31:58;11.00;99.90
20380;DHT22;10349;48.666;8.948;2024-02-21T15:34:23;11.00;99.90
20380;DHT22;10349;48.666;8.948;2024-02-21T15:36:49;10.90;99.90
20380;DHT22;10349;48.666;8.948;2024-02-21T15:39:15;10.90;99.90
20380;DHT22;10349;48.666;8.948;2024-02-21T15:41:40;10.90;99.90
20380;DHT22;10349;48.666;8.948;2024-02-21T15:44:06;10.80;99.90
20380;DHT22;10349;48.666;8.948;2024-02-21T15:46:32;10.90;99.90
20380;DHT22;10349;48.666;8.948;2024-02-21T15:49:01;10.80;99.90